Startpagina
METAR-TAF:

METAR-TAF

Vliegvelden :

Pemba, Mozambique

breedte: 12-59S, lengte: 040-32E, hoogte: 101 m

Actueel weer

Dit bericht is 5 uur en het 31 minuten geleden gemaakt, om 18:00 UTC
Wind 12 kt uit het zuiden
Temperatuur 25°C
Vochtigheid 83%
Druk 1020 hPa
Zicht 10 km of meer
Weinig wolken op 2000 ft

METAR: FQPB 171800Z 19012KT 9999 FEW020 25/22 Q1020

Tijdstip: 01:31 (23:31 UTC)

Verwachting

Dit bericht is 7 uur en het 31 minuten geleden gemaakt, om 16:00 UTC
Verwachting geldig van 17 om 18 UTC tot 18 om 18 UTC
Wind 10 kt uit het zuiden
Zicht 10 km of meer
Gebroken wolken op 2000 ft
Wijzigt naar
van 18 om 00 UTC tot 18 om 02 UTC
Wind 10 kt uit het westzuidwesten
Kans 30% :
Tijdelijke
van 18 om 00 UTC tot 18 om 06 UTC
Zicht: 5000 m
Verspreide wolken op 1500 ft
lichte regen, motregen
Wijzigt naar
van 18 om 06 UTC tot 18 om 08 UTC
Wind 10 kt uit het zuiden

TAF: FQPB 171600Z 1718/1818 17010KT 9999 BKN020 TX29/1813Z TN19/1803Z BECMG 1800/1802 24010KT PROB30 TEMPO 1800/1806 5000 -RADZ SCT015 BECMG 1806/1808 17010KT

Waarnemingen en weersverwachtingen van meer dan 4000 vliegvelden (METAR en TAF).

De beschikbare stations zijn de gele en rode punten op de kaart.

Ga met uw muis naar het station om de naam te zien.

Klik dan om waarnemingen en weersverwachtingen te zien.

kaart wijzigen: klik op de groene knoppen met een zwart kruis om in te zoomen, op de groene knop met een streepje om uit te zoomen of op de groene pijlen voor aangrenzende kaarten.


METAR-TAF: